Time;durP1;ratioP1;P1;durP2;ratioP2;P2;SDS_P1;SDS_P2;PMS_P1;PMS_P2;Temp;Humidity;BMP_temperature;BMP_pressure;BME280_temperature;BME280_humidity;BME280_pressure;Samples;Min_cycle;Max_cycle;Signal;HPM_P1;HPM_P2
2022/04/15 00:01:40;;;;;;;32.95;18.65;;;;;;;6.12;77.36;98246.83;1741576;81;21439;-57
2022/04/15 00:04:06;;;;;;;;;;;;;;;6.18;76.08;98243.16;1744818;81;21023;-57
2022/04/15 00:06:32;;;;;;;37.45;17.73;;;;;;;6.11;74.71;98246.55;1731910;81;20166;-57
2022/04/15 00:08:59;;;;;;;31.37;18.25;;;;;;;6.11;74.71;98246.55;1749963;81;21387;-57
2022/04/15 00:11:25;;;;;;;42.35;19.92;;;;;;;6.07;74.90;98245.95;1770882;81;20965;-57
2022/04/15 00:13:51;;;;;;;32.10;17.15;;;;;;;6.07;75.98;98245.42;1751749;81;21370;-57
2022/04/15 00:16:17;;;;;;;26.17;17.02;;;;;;;6.09;76.34;98243.83;1753193;81;21398;-57
2022/04/15 00:18:43;;;;;;;32.10;16.35;;;;;;;6.04;75.96;98245.89;1753391;81;20866;-57
2022/04/15 00:21:09;;;;;;;30.20;15.28;;;;;;;6.00;75.75;98251.48;1753639;81;20973;-57
2022/04/15 00:23:36;;;;;;;32.63;16.45;;;;;;;5.98;75.71;98254.11;1753541;81;21457;-57
2022/04/15 00:26:02;;;;;;;26.50;14.70;;;;;;;5.94;75.86;98254.61;1753439;81;21048;-57
2022/04/15 00:28:28;;;;;;;26.52;15.88;;;;;;;5.92;75.67;98248.67;1752833;81;21587;-57
2022/04/15 00:30:53;;;;;;;27.22;15.98;;;;;;;5.91;76.47;98253.77;1754865;81;20861;-57
2022/04/15 00:33:21;;;;;;;27.58;17.15;;;;;;;5.91;76.47;98253.77;1758081;81;20951;-57
2022/04/15 00:35:48;;;;;;;27.05;16.48;;;;;;;5.93;79.45;98252.17;1740080;81;21004;-57
2022/04/15 00:38:13;;;;;;;27.90;15.40;;;;;;;5.98;76.09;98246.86;1754917;79;20960;-57
2022/04/15 00:40:39;;;;;;;27.95;14.93;;;;;;;5.90;76.49;98244.07;1757169;81;22189;-57
2022/04/15 00:43:05;;;;;;;28.05;16.25;;;;;;;5.94;78.13;98254.61;1753115;81;20893;-57
2022/04/15 00:45:31;;;;;;;39.23;19.75;;;;;;;5.98;77.28;98248.20;1753724;81;20897;-57
2022/04/15 00:47:59;;;;;;;36.93;17.12;;;;;;;6.02;75.98;98250.70;1753222;81;20917;-57
2022/04/15 00:50:30;;;;;;;30.70;17.10;;;;;;;6.03;75.52;98252.86;1753430;81;20969;-57
2022/04/15 00:52:58;;;;;;;27.50;15.72;;;;;;;6.03;77.74;98254.20;1753053;81;21424;-57
2022/04/15 00:55:25;;;;;;;22.13;12.95;;;;;;;6.03;78.70;98253.67;1765283;81;20996;-56
2022/04/15 00:57:57;;;;;;;35.08;16.67;;;;;;;6.06;77.92;98257.21;1745765;79;20932;-57
2022/04/15 01:00:23;;;;;;;24.75;13.32;;;;;;;6.10;75.98;98254.34;1748949;81;21063;-57
2022/04/15 01:02:49;;;;;;;22.22;13.58;;;;;;;6.14;77.49;98260.03;1752437;81;21044;-57
2022/04/15 01:05:15;;;;;;;25.20;13.95;;;;;;;6.19;77.68;98251.52;1753504;81;21060;-57
2022/04/15 01:07:45;;;;;;;31.42;15.93;;;;;;;6.22;77.74;98251.55;1752993;81;21466;-57
2022/04/15 01:10:12;;;;;;;28.62;16.87;;;;;;;6.20;77.17;98258.53;1753479;81;21406;-57
2022/04/15 01:12:40;;;;;;;24.72;15.32;;;;;;;6.13;78.25;98253.83;1752911;81;21438;-57
2022/04/15 01:15:09;;;;;;;25.85;14.43;;;;;;;6.14;76.48;98253.30;1753766;81;21000;-57
2022/04/15 01:17:36;;;;;;;23.55;16.02;;;;;;;6.10;75.56;98249.48;1752198;81;21873;-57
2022/04/15 01:20:09;;;;;;;27.15;16.10;;;;;;;6.04;75.28;98247.77;1756526;81;21047;-57
2022/04/15 01:22:41;;;;;;;22.60;13.88;;;;;;;6.01;75.09;98241.54;1744231;81;21063;-57
2022/04/15 01:25:09;;;;;;;20.90;13.50;;;;;;;6.02;75.99;98246.67;1745885;81;21445;-57
2022/04/15 01:27:39;;;;;;;24.87;15.60;;;;;;;6.08;77.22;98247.58;1751327;81;20985;-57
2022/04/15 01:30:08;;;;;;;22.85;14.63;;;;;;;6.09;77.11;98246.52;1742822;81;21148;-57
2022/04/15 01:32:34;;;;;;;25.25;15.90;;;;;;;6.10;76.66;98244.11;1739293;81;21028;-57
2022/04/15 01:35:00;;;;;;;26.87;15.88;;;;;;;6.06;79.05;98240.26;1752608;81;20952;-57
2022/04/15 01:37:26;;;;;;;28.47;15.93;;;;;;;6.04;78.94;98239.16;1749101;81;20874;-57
2022/04/15 01:39:52;;;;;;;35.95;15.03;;;;;;;6.04;78.01;98241.04;1761647;81;21034;-57
2022/04/15 01:42:18;;;;;;;27.00;14.38;;;;;;;6.07;76.24;98237.88;1746755;81;21160;-57
2022/04/15 01:44:44;;;;;;;35.75;18.12;;;;;;;6.01;76.02;98238.32;1753003;81;20940;-57
2022/04/15 01:47:10;;;;;;;25.80;14.47;;;;;;;5.99;76.13;98236.41;1753452;81;21000;-57
2022/04/15 01:49:37;;;;;;;27.17;16.60;;;;;;;5.98;77.29;98243.36;1759651;81;21441;-57
2022/04/15 01:52:05;;;;;;;31.62;17.45;;;;;;;5.99;78.00;98247.70;1750123;81;21079;-57
2022/04/15 01:54:31;;;;;;;25.35;15.38;;;;;;;5.99;77.87;98239.63;1751763;81;21147;-57
2022/04/15 01:56:57;;;;;;;24.90;13.80;;;;;;;6.05;76.40;98244.83;1753631;81;20989;-57
2022/04/15 01:59:23;;;;;;;21.57;12.63;;;;;;;6.05;76.27;98240.79;1741809;81;20920;-57
2022/04/15 02:01:54;;;;;;;30.15;15.20;;;;;;;6.11;75.91;98238.47;1756593;81;20960;-57
2022/04/15 02:04:18;;;;;;;;;;;;;;;6.18;75.61;98237.78;1773507;79;20984;-57
2022/04/15 02:06:43;;;;;;;29.07;13.50;;;;;;;6.24;75.80;98235.99;1754699;81;21165;-57
2022/04/15 02:09:09;;;;;;;21.75;13.85;;;;;;;6.25;76.72;98235.46;1747197;81;20896;-57
2022/04/15 02:11:35;;;;;;;21.73;13.38;;;;;;;6.17;77.97;98231.30;1739474;82;21537;-57
2022/04/15 02:14:01;;;;;;;20.77;12.95;;;;;;;6.18;76.33;98228.89;1721032;81;20854;-57
2022/04/15 02:16:27;;;;;;;22.37;12.98;;;;;;;6.12;75.72;98227.18;1753336;81;20929;-57
2022/04/15 02:18:53;;;;;;;27.10;16.77;;;;;;;6.00;79.18;98235.88;1753576;81;21157;-57
2022/04/15 02:21:19;;;;;;;28.52;16.55;;;;;;;5.92;79.89;98235.22;1759444;81;20896;-57
2022/04/15 02:23:45;;;;;;;25.15;14.20;;;;;;;5.93;78.86;98233.34;1771018;79;21622;-57
2022/04/15 02:26:11;;;;;;;21.60;12.80;;;;;;;5.97;77.47;98231.78;1761931;81;20885;-57
2022/04/15 02:28:37;;;;;;;23.67;13.22;;;;;;;5.99;77.56;98232.37;1726940;82;21043;-57
2022/04/15 02:31:03;;;;;;;23.60;14.68;;;;;;;6.03;76.27;98232.69;1753154;81;21143;-57
2022/04/15 02:33:28;;;;;;;19.48;13.03;;;;;;;6.03;76.94;98231.34;1761097;79;21132;-57
2022/04/15 02:35:55;;;;;;;29.85;14.55;;;;;;;6.03;78.79;98228.13;1755552;81;20901;-57
2022/04/15 02:38:21;;;;;;;23.83;13.48;;;;;;;6.03;78.99;98232.16;1743644;81;21044;-57
2022/04/15 02:40:47;;;;;;;23.00;12.70;;;;;;;6.04;79.29;98232.97;1753152;81;21017;-57
2022/04/15 02:43:13;;;;;;;19.15;11.90;;;;;;;6.06;78.03;98233.53;1753413;81;21538;-57
2022/04/15 02:45:39;;;;;;;23.12;11.28;;;;;;;6.07;77.51;98236.00;1725334;81;21746;-57
2022/04/15 02:48:05;;;;;;;25.00;12.45;;;;;;;6.10;76.61;98225.27;1749337;81;20869;-57
2022/04/15 02:50:31;;;;;;;21.75;12.82;;;;;;;6.11;76.14;98235.78;1749780;81;21418;-57
2022/04/15 02:52:59;;;;;;;21.40;13.55;;;;;;;6.15;76.07;98236.09;1753300;81;21563;-57
2022/04/15 02:55:25;;;;;;;28.10;19.25;;;;;;;6.19;77.92;98241.28;1765913;81;22160;-57
2022/04/15 02:57:52;;;;;;;22.95;16.97;;;;;;;6.21;77.93;98244.53;1757290;79;20925;-57
2022/04/15 03:00:18;;;;;;;27.02;14.03;;;;;;;6.21;78.06;98234.59;1750276;81;21020;-57
2022/04/15 03:02:44;;;;;;;25.80;14.05;;;;;;;6.19;78.11;98235.38;1755155;79;21023;-57
2022/04/15 03:05:10;;;;;;;18.55;12.43;;;;;;;6.20;77.56;98240.22;1771215;81;20829;-57
2022/04/15 03:07:37;;;;;;;20.02;12.37;;;;;;;6.23;77.51;98236.49;1742926;81;21270;-57
2022/04/15 03:10:04;;;;;;;28.07;13.93;;;;;;;6.29;76.57;98238.74;1739922;81;21462;-57
2022/04/15 03:12:38;;;;;;;21.68;12.75;;;;;;;6.33;76.21;98245.28;1739572;81;20996;-57
2022/04/15 03:15:05;;;;;;;30.57;15.08;;;;;;;6.38;77.53;98243.17;1753231;81;20977;-57
2022/04/15 03:17:34;;;;;;;24.98;13.22;;;;;;;6.43;77.03;98247.30;1753195;81;21000;-55
2022/04/15 03:20:02;;;;;;;;;;;;;;;6.44;77.79;98247.58;1755985;81;21649;-57
2022/04/15 03:22:36;;;;;;;24.65;15.00;;;;;;;6.47;76.24;98251.92;1754233;81;20131;-57
2022/04/15 03:25:04;;;;;;;20.92;11.65;;;;;;;6.45;77.27;98243.82;1761397;79;21246;-57
2022/04/15 03:27:30;;;;;;;26.07;15.03;;;;;;;6.47;76.04;98249.77;1752419;81;21061;-57
2022/04/15 03:29:56;;;;;;;26.23;14.15;;;;;;;6.43;77.32;98249.45;1751354;81;20940;-57
2022/04/15 03:32:22;;;;;;;23.35;13.28;;;;;;;6.44;77.01;98248.39;1766823;81;21053;-57
2022/04/15 03:34:47;;;;;;;26.48;13.43;;;;;;;6.44;76.81;98251.62;1761083;81;20947;-57
2022/04/15 03:37:13;;;;;;;24.52;15.50;;;;;;;6.41;76.95;98256.13;1761469;81;20995;-57
2022/04/15 03:39:39;;;;;;;23.02;13.78;;;;;;;6.38;77.53;98259.33;1764121;79;21507;-57
2022/04/15 03:42:07;;;;;;;22.27;13.68;;;;;;;6.39;76.59;98260.42;1753469;81;20870;-57
2022/04/15 03:44:33;;;;;;;24.45;13.00;;;;;;;6.40;76.51;98267.43;1759218;81;21492;-57
2022/04/15 03:46:59;;;;;;;28.25;15.25;;;;;;;6.43;76.16;98268.30;1760340;81;20921;-57
2022/04/15 03:49:25;;;;;;;33.00;16.32;;;;;;;6.42;76.36;98272.06;1753308;81;20983;-57
2022/04/15 03:51:51;;;;;;;29.25;16.77;;;;;;;6.46;76.59;98265.64;1745612;81;21393;-57
2022/04/15 03:54:17;;;;;;;27.30;15.90;;;;;;;6.50;76.99;98272.98;1747384;81;20845;-57
2022/04/15 03:56:43;;;;;;;32.60;16.35;;;;;;;6.55;76.24;98281.66;1754715;81;21349;-56
2022/04/15 03:59:09;;;;;;;26.70;16.77;;;;;;;6.54;78.33;98278.68;1752624;81;21265;-57
2022/04/15 04:01:34;;;;;;;98.05;48.80;;;;;;;6.55;76.95;98278.96;1771061;81;20948;-58
2022/04/15 04:04:00;;;;;;;35.68;17.55;;;;;;;6.58;76.93;98292.45;1767174;79;21537;-57
2022/04/15 04:06:26;;;;;;;34.73;19.40;;;;;;;6.58;78.36;98281.18;1744393;81;20890;-57
2022/04/15 04:08:52;;;;;;;27.67;16.55;;;;;;;6.54;79.74;98286.76;1744888;81;21328;-57
2022/04/15 04:11:19;;;;;;;23.20;15.55;;;;;;;6.54;78.85;98279.22;1743755;81;20870;-57
2022/04/15 04:13:45;;;;;;;29.45;15.55;;;;;;;6.54;77.04;98293.48;1753175;81;21422;-57
2022/04/15 04:16:14;;;;;;;29.90;17.35;;;;;;;6.56;76.51;98286.50;1752980;81;20945;-57
2022/04/15 04:18:43;;;;;;;47.35;22.75;;;;;;;6.59;76.89;98304.34;1762798;79;21047;-57
2022/04/15 04:21:09;;;;;;;;;;;;;;;6.62;78.50;98292.26;1768865;81;21282;-57
2022/04/15 04:23:35;;;;;;;37.35;21.52;;;;;;;6.70;76.22;98294.53;1753119;81;20177;-57
2022/04/15 04:26:01;;;;;;;46.05;23.77;;;;;;;6.73;76.12;98301.57;1753393;81;20949;-57
2022/04/15 04:28:27;;;;;;;43.13;23.35;;;;;;;6.78;76.72;98304.88;1752646;81;20989;-57
2022/04/15 04:30:53;;;;;;;41.90;22.58;;;;;;;6.81;77.26;98302.22;1738878;81;20904;-57
2022/04/15 04:33:20;;;;;;;33.10;20.08;;;;;;;6.82;76.26;98311.92;1744572;81;21591;-57
2022/04/15 04:35:46;;;;;;;52.38;38.45;;;;;;;6.83;76.38;98310.86;1753270;81;20992;-57
2022/04/15 04:38:12;;;;;;;42.93;21.45;;;;;;;6.84;77.35;98304.43;1749283;81;20889;-57
2022/04/15 04:40:38;;;;;;;36.03;18.00;;;;;;;6.89;76.34;98305.30;1753409;81;20881;-57
2022/04/15 04:43:04;;;;;;;40.73;22.13;;;;;;;6.89;76.53;98301.79;1758515;79;21571;-57
2022/04/15 04:45:32;;;;;;;41.95;22.67;;;;;;;6.91;76.17;98315.28;1747047;81;21453;-57
2022/04/15 04:47:59;;;;;;;43.45;22.67;;;;;;;6.97;76.30;98316.17;1753105;81;21066;-57
2022/04/15 04:50:26;;;;;;;42.00;23.85;;;;;;;7.00;76.06;98315.14;1753394;81;20970;-57
2022/04/15 04:52:52;;;;;;;49.27;28.15;;;;;;;7.07;76.04;98328.44;1746806;79;20981;-57
2022/04/15 04:55:18;;;;;;;53.50;26.75;;;;;;;7.13;76.02;98335.53;1759773;81;21587;-57
2022/04/15 04:57:44;;;;;;;64.92;34.30;;;;;;;7.25;75.92;98334.05;1748584;80;21209;-57
2022/04/15 05:00:12;;;;;;;60.63;31.55;;;;;;;7.33;75.88;98337.13;1750274;81;20944;-57
2022/04/15 05:02:38;;;;;;;55.75;32.03;;;;;;;7.42;75.77;98341.55;1749111;81;21004;-57
2022/04/15 05:05:05;;;;;;;64.42;37.08;;;;;;;7.49;75.60;98344.88;1752688;81;21543;-57
2022/04/15 05:07:31;;;;;;;56.48;35.33;;;;;;;7.54;76.01;98354.92;1751018;81;21332;-57
2022/04/15 05:09:57;;;;;;;61.63;38.42;;;;;;;7.60;75.40;98354.70;1753235;81;21152;-57
2022/04/15 05:12:23;;;;;;;66.33;37.33;;;;;;;7.67;75.92;98355.05;1753359;81;20991;-57
2022/04/15 05:14:49;;;;;;;69.90;35.83;;;;;;;7.70;75.53;98359.42;1750988;81;20924;-57
2022/04/15 05:17:15;;;;;;;66.10;38.33;;;;;;;7.75;75.40;98364.86;1749577;81;20861;-57
2022/04/15 05:19:41;;;;;;;54.55;33.98;;;;;;;7.77;76.62;98353.27;1753670;81;20968;-57
2022/04/15 05:22:08;;;;;;;67.72;35.65;;;;;;;7.81;75.66;98359.81;1753624;80;21456;-57
2022/04/15 05:24:34;;;;;;;57.33;31.42;;;;;;;7.85;76.82;98355.52;1721974;81;21490;-57
2022/04/15 05:27:00;;;;;;;55.50;30.70;;;;;;;7.90;75.66;98351.54;1740164;81;20884;-57
2022/04/15 05:29:26;;;;;;;49.80;31.33;;;;;;;7.95;75.57;98356.19;1734661;81;21446;-57
2022/04/15 05:31:52;;;;;;;50.60;30.57;;;;;;;7.99;76.05;98351.08;1738003;81;20857;-57
2022/04/15 05:34:18;;;;;;;46.37;29.77;;;;;;;8.03;75.50;98353.03;1737432;81;21686;-57
2022/04/15 05:36:44;;;;;;;68.87;35.63;;;;;;;8.09;75.28;98360.09;1737193;81;20888;-57
2022/04/15 05:39:10;;;;;;;60.83;34.65;;;;;;;8.17;75.18;98366.91;1740908;81;20904;-57
2022/04/15 05:41:35;;;;;;;81.60;42.85;;;;;;;8.21;75.97;98364.00;1753559;81;21456;-57
2022/04/15 05:44:03;;;;;;;50.50;29.20;;;;;;;8.22;76.66;98357.53;1753351;81;20845;-57
2022/04/15 05:46:30;;;;;;;64.58;35.13;;;;;;;8.24;75.89;98362.66;1736892;81;21449;-57
2022/04/15 05:48:56;;;;;;;74.42;38.40;;;;;;;8.27;76.06;98366.19;1734065;81;20956;-57
2022/04/15 05:51:22;;;;;;;76.20;43.13;;;;;;;8.30;75.59;98361.64;1753363;81;20908;-57
2022/04/15 05:53:48;;;;;;;69.42;38.53;;;;;;;8.33;75.30;98364.64;1734782;81;20920;-57
2022/04/15 05:56:14;;;;;;;79.55;35.25;;;;;;;8.38;75.39;98362.56;1733807;81;21027;-57
2022/04/15 05:58:40;;;;;;;69.97;35.90;;;;;;;8.45;75.57;98357.73;1737540;81;21450;-57
2022/04/15 06:01:09;;;;;;;129.25;66.17;;;;;;;8.47;76.29;98352.91;1740111;81;21421;-58
2022/04/15 06:03:37;;;;;;;111.57;64.77;;;;;;;8.51;77.23;98343.75;1753713;81;21358;-57
2022/04/15 06:06:04;;;;;;;93.33;58.00;;;;;;;8.41;76.96;98343.95;1753408;81;21544;-57
2022/04/15 06:08:31;;;;;;;83.15;50.45;;;;;;;8.41;76.71;98342.59;1753284;81;21012;-57
2022/04/15 06:10:57;;;;;;;89.00;52.85;;;;;;;8.40;77.10;98346.91;1753564;81;21437;-57
2022/04/15 06:13:23;;;;;;;73.42;42.10;;;;;;;8.39;77.54;98352.84;1743624;81;20976;-58
2022/04/15 06:15:58;;;;;;;73.83;43.87;;;;;;;8.38;78.87;98351.22;1738544;81;21438;-58
2022/04/15 06:18:26;;;;;;;58.48;35.80;;;;;;;8.34;80.08;98350.06;1749966;81;20953;-57
2022/04/15 06:20:52;;;;;;;52.40;34.10;;;;;;;8.29;78.68;98347.84;1736031;81;20966;-58
2022/04/15 06:23:18;;;;;;;47.90;29.18;;;;;;;8.20;78.52;98338.89;1724930;81;22250;-57
2022/04/15 06:25:45;;;;;;;42.65;28.80;;;;;;;8.15;79.36;98323.17;1732541;81;20996;-57
2022/04/15 06:28:11;;;;;;;49.55;28.70;;;;;;;8.11;81.40;98317.98;1728920;81;21424;-58
2022/04/15 06:30:37;;;;;;;46.83;28.20;;;;;;;8.14;84.66;98322.36;1741610;81;21036;-58
2022/04/15 06:33:06;;;;;;;49.40;34.35;;;;;;;8.22;82.30;98327.02;1739498;81;21171;-57
2022/04/15 06:35:33;;;;;;;60.48;32.80;;;;;;;8.28;84.55;98327.31;1738148;80;21780;-57
2022/04/15 06:37:59;;;;;;;56.77;38.30;;;;;;;8.32;82.04;98319.81;1741291;80;21004;-57
2022/04/15 06:40:25;;;;;;;65.62;42.13;;;;;;;8.41;81.91;98325.58;1741559;81;20880;-57
2022/04/15 06:42:50;;;;;;;64.10;42.13;;;;;;;8.52;81.70;98344.02;1742032;80;20873;-57
2022/04/15 06:45:16;;;;;;;67.65;45.33;;;;;;;8.60;81.67;98350.30;1744905;82;20960;-57
2022/04/15 06:47:42;;;;;;;76.55;54.23;;;;;;;8.66;81.59;98353.33;1743141;79;21099;-57
2022/04/15 06:50:09;;;;;;;75.32;52.08;;;;;;;8.73;82.46;98345.28;1736548;81;20988;-57
2022/04/15 06:52:35;;;;;;;68.55;42.70;;;;;;;8.77;85.95;98334.75;1735596;82;21003;-57
2022/04/15 06:55:01;;;;;;;65.42;46.60;;;;;;;8.79;83.78;98342.59;1740830;81;20867;-57
2022/04/15 06:57:26;;;;;;;70.30;43.33;;;;;;;8.83;83.10;98348.58;1751026;81;20874;-58
2022/04/15 06:59:52;;;;;;;64.58;45.20;;;;;;;8.88;84.27;98351.84;1743547;81;21518;-58
2022/04/15 07:02:18;;;;;;;75.25;47.93;;;;;;;8.90;84.87;98347.02;1735917;81;20889;-57
2022/04/15 07:04:44;;;;;;;91.32;55.05;;;;;;;8.94;84.55;98344.05;1750632;81;21642;-58
2022/04/15 07:07:10;;;;;;;85.25;55.50;;;;;;;8.98;84.05;98344.63;1745298;81;20870;-57
2022/04/15 07:09:36;;;;;;;93.80;51.75;;;;;;;9.04;83.87;98350.86;1739847;81;20958;-57
2022/04/15 07:12:03;;;;;;;92.60;55.73;;;;;;;9.11;83.78;98354.16;1748350;81;21075;-57
2022/04/15 07:14:30;;;;;;;87.95;53.90;;;;;;;9.17;84.37;98355.00;1749597;79;20989;-58
2022/04/15 07:16:56;;;;;;;83.17;54.10;;;;;;;9.20;84.39;98354.47;1732048;82;20977;-58
2022/04/15 07:19:22;;;;;;;80.72;52.90;;;;;;;9.21;84.34;98362.85;1740191;81;20996;-57
2022/04/15 07:21:48;;;;;;;76.17;49.13;;;;;;;9.19;84.26;98365.02;1738536;82;20890;-57
2022/04/15 07:24:14;;;;;;;90.57;51.23;;;;;;;9.19;85.01;98357.71;1743673;81;21125;-57
2022/04/15 07:26:40;;;;;;;84.47;52.53;;;;;;;9.13;85.38;98357.41;1737946;81;20874;-57
2022/04/15 07:29:06;;;;;;;98.80;61.05;;;;;;;9.10;85.50;98354.42;1754594;80;21011;-57
2022/04/15 07:31:32;;;;;;;94.13;60.30;;;;;;;9.07;84.91;98356.30;1743800;81;20873;-58
2022/04/15 07:33:58;;;;;;;81.72;53.17;;;;;;;9.09;87.25;98352.26;1763195;79;21452;-57
2022/04/15 07:36:43;;;;;;;94.17;61.42;;;;;;;9.10;85.76;98353.06;1740328;82;21536;-57
2022/04/15 07:38:55;;;;;;;99.28;63.73;;;;;;;9.11;85.45;98358.20;1716745;81;20961;-58
2022/04/15 07:41:21;;;;;;;100.72;62.73;;;;;;;9.17;85.77;98362.58;1739616;82;20993;-57
2022/04/15 07:43:48;;;;;;;93.12;58.70;;;;;;;9.18;86.52;98360.14;1747456;82;21431;-57
2022/04/15 07:46:16;;;;;;;96.63;63.58;;;;;;;9.21;86.17;98358.25;1722845;82;36690;-57
2022/04/15 07:48:42;;;;;;;101.72;68.80;;;;;;;9.24;85.94;98364.52;1734642;82;23340;-57
2022/04/15 07:51:09;;;;;;;100.72;69.35;;;;;;;9.29;86.42;98367.77;1735975;82;21055;-58
2022/04/15 07:53:35;;;;;;;86.30;59.15;;;;;;;9.30;89.66;98358.03;1749913;80;21428;-57
2022/04/15 07:56:01;;;;;;;92.20;67.00;;;;;;;9.36;90.25;98366.18;1739193;81;21021;-57
2022/04/15 07:58:28;;;;;;;78.95;55.65;;;;;;;9.42;88.42;98368.66;1729531;80;21611;-57
2022/04/15 08:00:54;;;;;;;89.60;62.40;;;;;;;9.50;87.80;98370.86;1743740;81;21084;-58
2022/04/15 08:03:21;;;;;;;82.30;56.25;;;;;;;9.55;87.83;98372.21;1747026;82;20893;-58
2022/04/15 08:05:47;;;;;;;106.47;71.00;;;;;;;9.60;87.46;98372.25;1749259;81;21037;-57
2022/04/15 08:08:13;;;;;;;115.70;76.35;;;;;;;9.65;87.49;98375.50;1740785;81;20965;-58
2022/04/15 08:10:39;;;;;;;88.62;60.48;;;;;;;9.68;87.46;98383.10;1749217;81;20905;-57
2022/04/15 08:13:05;;;;;;;86.05;59.10;;;;;;;9.74;87.71;98379.86;1763701;79;21827;-58
2022/04/15 08:15:31;;;;;;;110.15;74.60;;;;;;;9.74;87.58;98382.56;1724043;81;21470;-58
2022/04/15 08:17:57;;;;;;;98.27;72.50;;;;;;;9.79;87.37;98383.41;1742431;80;20966;-57
2022/04/15 08:20:23;;;;;;;81.42;53.85;;;;;;;9.89;87.38;98384.78;1735200;82;20919;-57
2022/04/15 08:22:49;;;;;;;266.20;150.97;;;;;;;9.96;87.80;98385.08;1748734;81;20989;-57
2022/04/15 08:25:15;;;;;;;118.35;77.12;;;;;;;10.00;87.48;98384.30;1746443;81;21343;-57
2022/04/15 08:27:44;;;;;;;97.00;70.17;;;;;;;10.10;87.86;98382.96;1740671;81;21600;-57
2022/04/15 08:30:10;;;;;;;94.13;64.40;;;;;;;10.17;89.58;98377.30;1747614;81;21047;-58
2022/04/15 08:32:36;;;;;;;91.82;65.15;;;;;;;10.25;89.81;98380.02;1741401;81;21559;-57
2022/04/15 08:35:04;;;;;;;154.50;104.12;;;;;;;10.31;89.27;98373.53;1739655;81;20957;-57
2022/04/15 08:37:29;;;;;;;124.20;89.72;;;;;;;10.38;88.48;98378.97;1747726;80;21733;-57
2022/04/15 08:39:55;;;;;;;93.27;63.78;;;;;;;10.53;87.96;98376.00;1728743;80;20849;-57
2022/04/15 08:42:22;;;;;;;95.80;67.72;;;;;;;10.66;87.82;98377.61;1735619;81;21445;-58
2022/04/15 08:44:50;;;;;;;119.15;85.55;;;;;;;10.74;87.87;98372.19;1742363;79;21053;-57
2022/04/15 08:47:17;;;;;;;184.63;137.50;;;;;;;10.78;89.48;98372.48;1727658;81;20969;-57
2022/04/15 08:49:42;;;;;;;109.37;77.45;;;;;;;10.82;90.09;98372.19;1744534;81;21155;-58
2022/04/15 08:52:12;;;;;;;150.38;110.88;;;;;;;10.87;89.27;98371.66;1744615;81;20917;-57
2022/04/15 08:54:38;;;;;;;105.72;74.50;;;;;;;10.87;89.32;98371.66;1740440;81;20961;-57
2022/04/15 08:57:04;;;;;;;203.95;146.95;;;;;;;10.82;92.81;98370.84;1744184;81;20892;-57
2022/04/15 08:59:30;;;;;;;81.60;61.28;;;;;;;10.86;90.92;98370.58;1738133;81;21402;-57
2022/04/15 09:01:56;;;;;;;86.20;67.15;;;;;;;10.90;90.79;98365.67;1745008;82;21352;-58
2022/04/15 09:04:22;;;;;;;102.78;77.58;;;;;;;10.94;91.22;98364.61;1736769;82;20951;-57
2022/04/15 09:06:59;;;;;;;95.03;67.20;;;;;;;11.04;89.69;98374.62;1738097;81;20988;-57
2022/04/15 09:09:30;;;;;;;139.60;91.87;;;;;;;11.12;89.03;98366.73;1748453;79;21466;-57
2022/04/15 09:11:58;;;;;;;91.05;62.83;;;;;;;11.23;88.81;98368.88;1745190;81;20989;-57
2022/04/15 09:14:24;;;;;;;63.95;44.73;;;;;;;11.27;91.18;98368.03;1746559;82;21145;-57
2022/04/15 09:16:50;;;;;;;62.38;40.67;;;;;;;11.18;92.87;98370.23;1747727;81;21520;-57
2022/04/15 09:19:17;;;;;;;60.85;42.17;;;;;;;11.22;91.95;98363.19;1746315;80;20921;-57
2022/04/15 09:21:55;;;;;;;65.37;42.55;;;;;;;11.18;92.48;98364.80;1753185;81;21017;-57
2022/04/15 09:24:36;;;;;;;49.47;34.90;;;;;;;11.18;92.05;98362.91;1746480;80;21041;-57
2022/04/15 09:27:06;;;;;;;50.30;34.67;;;;;;;11.12;92.92;98365.92;1712029;82;21207;-58
2022/04/15 09:29:36;;;;;;;50.12;35.48;;;;;;;11.14;91.59;98365.10;1746443;81;20962;-57
2022/04/15 09:32:15;;;;;;;56.40;40.25;;;;;;;11.18;91.57;98372.40;1741864;81;20954;-57
2022/04/15 09:35:07;;;;;;;74.20;51.55;;;;;;;11.27;91.14;98363.97;1734356;82;21022;-58
2022/04/15 09:37:39;;;;;;;78.92;53.75;;;;;;;11.38;89.81;98364.77;1741591;81;20993;-56
2022/04/15 09:40:14;;;;;;;70.10;51.18;;;;;;;11.45;89.55;98367.16;1757491;80;21834;-58
2022/04/15 09:42:49;;;;;;;77.35;53.92;;;;;;;11.49;89.08;98370.97;1755160;81;20950;-58
2022/04/15 09:45:18;;;;;;;82.78;55.33;;;;;;;11.51;88.82;98365.52;1736532;81;21015;-57
2022/04/15 09:47:59;;;;;;;69.17;45.58;;;;;;;11.56;88.34;98366.06;1743135;81;20996;-57
2022/04/15 09:50:37;;;;;;;49.77;35.98;;;;;;;11.60;88.23;98360.33;1747619;82;21052;-57
2022/04/15 09:53:13;;;;;;;58.95;42.13;;;;;;;11.67;88.00;98353.25;1746188;81;21156;-57
2022/04/15 09:55:46;;;;;;;68.50;47.58;;;;;;;11.64;88.00;98367.39;1715888;81;21008;-57
2022/04/15 09:58:21;;;;;;;57.50;39.60;;;;;;;11.63;87.91;98368.48;1726679;81;21429;-57
2022/04/15 10:00:51;;;;;;;78.28;47.55;;;;;;;11.62;88.58;98371.71;1753307;81;20990;-58
2022/04/15 10:03:21;;;;;;;64.53;41.80;;;;;;;11.68;87.78;98360.30;1751078;80;20985;-57
2022/04/15 10:05:49;;;;;;;56.88;39.65;;;;;;;11.65;88.85;98372.53;1745830;82;21308;-57
2022/04/15 10:08:15;;;;;;;48.90;37.45;;;;;;;11.66;89.08;98373.34;1728722;80;20996;-57
2022/04/15 10:10:41;;;;;;;55.85;38.83;;;;;;;11.68;89.09;98367.89;1764012;81;20908;-57
2022/04/15 10:13:07;;;;;;;55.15;39.20;;;;;;;11.72;90.05;98368.17;1751604;80;20876;-57
2022/04/15 10:15:34;;;;;;;54.03;37.25;;;;;;;11.78;89.35;98371.11;1744388;81;21564;-58
2022/04/15 10:18:01;;;;;;;50.92;36.58;;;;;;;11.88;88.83;98371.63;1744325;81;21192;-57
2022/04/15 10:20:30;;;;;;;54.67;37.60;;;;;;;11.98;88.50;98379.75;1735199;82;21051;-57
2022/04/15 10:23:06;;;;;;;50.12;35.83;;;;;;;12.05;88.22;98372.11;1715427;82;20982;-57
2022/04/15 10:25:32;;;;;;;41.37;31.45;;;;;;;12.07;88.09;98370.73;1745564;82;20973;-57
2022/04/15 10:28:19;;;;;;;43.63;29.77;;;;;;;12.13;87.95;98372.84;1746593;81;20966;-56
2022/04/15 10:30:54;;;;;;;48.25;33.67;;;;;;;12.19;88.00;98371.73;1743666;81;21244;-56
2022/04/15 10:33:32;;;;;;;109.00;51.13;;;;;;;12.35;87.70;98376.52;1711967;81;21488;-56
2022/04/15 10:36:10;;;;;;;39.67;31.12;;;;;;;12.48;87.60;98370.47;1756388;81;21016;-57
2022/04/15 10:38:36;;;;;;;40.25;28.15;;;;;;;12.49;87.21;98373.44;1749371;81;21055;-57
2022/04/15 10:41:15;;;;;;;29.85;21.23;;;;;;;12.50;87.12;98369.63;1753309;81;20862;-56
2022/04/15 10:43:58;;;;;;;29.90;21.10;;;;;;;12.52;86.99;98376.13;1734846;79;21401;-56
2022/04/15 10:46:31;;;;;;;30.95;21.68;;;;;;;12.58;86.62;98374.45;1727710;82;21406;-57
2022/04/15 10:48:58;;;;;;;26.70;18.05;;;;;;;12.66;86.44;98370.32;1739175;82;21012;-57
2022/04/15 10:51:29;;;;;;;23.70;16.77;;;;;;;12.67;86.23;98370.03;1751984;81;20961;-57
2022/04/15 10:53:58;;;;;;;23.00;14.98;;;;;;;12.70;86.04;98373.53;1750696;81;21025;-58
2022/04/15 10:56:24;;;;;;;17.02;12.65;;;;;;;12.73;85.59;98371.33;1743365;82;21992;-58
2022/04/15 11:02:04;;;;;;;16.15;10.32;;;;;;;12.88;85.17;98370.66;1734941;82;20983;-58
2022/04/15 11:04:35;;;;;;;20.05;13.15;;;;;;;12.83;83.98;98363.91;1746131;82;21021;-57
2022/04/15 11:07:15;;;;;;;44.55;21.97;;;;;;;12.78;83.42;98362.59;1748051;82;20970;-57
2022/04/15 11:09:40;;;;;;;13.70;10.23;;;;;;;12.70;82.99;98367.28;1762650;79;21593;-57
2022/04/15 11:12:06;;;;;;;14.87;10.15;;;;;;;12.57;83.11;98374.20;1765726;81;20871;-57
2022/04/15 11:14:34;;;;;;;11.75;9.08;;;;;;;12.47;82.84;98377.52;1747949;81;21005;-57
2022/04/15 11:17:00;;;;;;;11.73;9.10;;;;;;;12.37;83.21;98376.50;1754512;81;21410;-57
2022/04/15 11:19:26;;;;;;;24.47;16.17;;;;;;;12.43;82.80;98381.36;1747311;81;20992;-57
2022/04/15 11:21:53;;;;;;;46.85;40.60;;;;;;;12.57;82.82;98370.12;1758193;81;21664;-57
2022/04/15 11:24:30;;;;;;;16.50;12.03;;;;;;;12.79;82.83;98370.20;1757419;81;21055;-57
2022/04/15 11:27:03;;;;;;;22.58;14.25;;;;;;;13.03;82.96;98364.27;1747594;81;21028;-57
2022/04/15 11:29:31;;;;;;;14.10;10.65;;;;;;;13.20;82.38;98367.94;1744084;82;21623;-57